createdAt,value
2022-12-29T00:00:39.507Z,85.75
2022-12-29T00:01:39.155Z,85.75
2022-12-29T00:02:39.481Z,85.94
2022-12-29T00:03:39.843Z,85.75
2022-12-29T00:04:39.518Z,85.94
2022-12-29T00:05:39.474Z,85.75
2022-12-29T00:06:39.490Z,85.94
2022-12-29T00:07:39.533Z,85.56
2022-12-29T00:08:39.547Z,85.66
2022-12-29T00:09:39.547Z,85.56
2022-12-29T00:10:40.003Z,86.04
2022-12-29T00:11:39.587Z,86.04
2022-12-29T00:12:39.331Z,86.13
2022-12-29T00:13:39.600Z,86.32
2022-12-29T00:14:39.621Z,86.13
2022-12-29T00:15:39.880Z,85.94
2022-12-29T00:16:39.754Z,86.13
2022-12-29T00:17:39.669Z,85.94
2022-12-29T00:18:39.420Z,86.13
2022-12-29T00:19:39.708Z,85.94
2022-12-29T00:20:39.798Z,86.32
2022-12-29T00:21:39.738Z,86.32
2022-12-29T00:22:39.747Z,86.32
2022-12-29T00:23:40.051Z,86.04
2022-12-29T00:24:39.916Z,86.32
2022-12-29T00:25:39.987Z,86.22
2022-12-29T00:26:39.737Z,85.85
2022-12-29T00:27:40.015Z,86.32
2022-12-29T00:28:39.980Z,86.22
2022-12-29T00:29:40.029Z,86.22
2022-12-29T00:30:39.757Z,86.32
2022-12-29T00:31:40.175Z,86.42
2022-12-29T00:32:40.009Z,86.42
2022-12-29T00:33:39.699Z,85.66
2022-12-29T00:34:39.974Z,86.32
2022-12-29T00:35:40.053Z,86.32
2022-12-29T00:36:40.060Z,86.22
2022-12-29T00:37:40.029Z,86.32
2022-12-29T00:38:39.997Z,86.22
2022-12-29T00:39:40.027Z,86.32
2022-12-29T00:40:39.814Z,86.22
2022-12-29T00:41:40.044Z,86.22
2022-12-29T00:42:40.053Z,86.22
2022-12-29T00:43:39.828Z,86.22
2022-12-29T00:44:40.083Z,86.22
2022-12-29T00:45:40.091Z,86.22
2022-12-29T00:46:40.233Z,86.22
2022-12-29T00:47:39.864Z,86.22
2022-12-29T00:48:40.138Z,86.04
2022-12-29T00:49:39.895Z,86.22
2022-12-29T00:50:40.170Z,86.04
2022-12-29T00:51:40.189Z,86.22
2022-12-29T00:52:40.297Z,85.94
2022-12-29T00:53:39.956Z,86.22
2022-12-29T00:54:40.244Z,86.32
2022-12-29T00:55:40.247Z,86.22
2022-12-29T00:56:40.263Z,86.22
2022-12-29T00:57:40.277Z,86.32
2022-12-29T00:58:40.291Z,86.13
2022-12-29T00:59:40.064Z,86.22
2022-12-29T01:00:40.444Z,86.04
2022-12-29T01:01:40.757Z,86.22
2022-12-29T01:02:40.422Z,86.22
2022-12-29T01:03:40.372Z,86.22
2022-12-29T01:04:40.386Z,86.22
2022-12-29T01:05:40.395Z,86.32
2022-12-29T01:06:40.434Z,86.32
2022-12-29T01:07:40.429Z,86.22
2022-12-29T01:08:40.503Z,86.51
2022-12-29T01:09:40.481Z,86.22
2022-12-29T01:10:40.934Z,86.04
2022-12-29T01:11:40.499Z,86.04
2022-12-29T01:12:40.513Z,86.13
2022-12-29T01:13:40.522Z,86.32
2022-12-29T01:14:40.536Z,86.22
2022-12-29T01:15:40.557Z,86.13
2022-12-29T01:16:40.608Z,86.22
2022-12-29T01:17:40.619Z,86.04
2022-12-29T01:18:40.607Z,86.42
2022-12-29T01:19:40.379Z,86.22
2022-12-29T01:20:40.641Z,86.04
2022-12-29T01:21:40.651Z,86.13
2022-12-29T01:22:40.678Z,86.04
2022-12-29T01:23:40.412Z,86.42
2022-12-29T01:24:40.744Z,86.13
2022-12-29T01:25:40.722Z,86.13
2022-12-29T01:26:40.738Z,86.32
2022-12-29T01:27:40.750Z,86.32
2022-12-29T01:28:40.756Z,86.32
2022-12-29T01:29:40.772Z,86.32
2022-12-29T01:30:40.790Z,86.22
2022-12-29T01:31:40.979Z,86.51
2022-12-29T01:32:40.820Z,86.32
2022-12-29T01:33:40.837Z,86.04
2022-12-29T01:34:40.849Z,86.42
2022-12-29T01:35:40.869Z,86.04
2022-12-29T01:36:40.900Z,86.04
2022-12-29T01:37:40.922Z,86.04
2022-12-29T01:38:40.655Z,85.94
2022-12-29T01:39:40.943Z,86.22
2022-12-29T01:40:41.004Z,86.04
2022-12-29T01:41:40.703Z,86.22
2022-12-29T01:42:40.977Z,86.04
2022-12-29T01:43:40.727Z,86.13
2022-12-29T01:44:40.751Z,86.51
2022-12-29T01:45:41.112Z,86.32
2022-12-29T01:46:41.064Z,86.04
2022-12-29T01:47:41.117Z,86.04
2022-12-29T01:48:41.067Z,86.22
2022-12-29T01:49:41.084Z,86.04
2022-12-29T01:50:41.098Z,86.04
2022-12-29T01:51:41.122Z,85.94
2022-12-29T01:52:41.124Z,85.94
2022-12-29T01:53:40.889Z,86.42
2022-12-29T01:54:40.955Z,86.22
2022-12-29T01:55:40.929Z,86.22
2022-12-29T01:56:41.245Z,86.22
2022-12-29T01:57:41.228Z,86.32
2022-12-29T01:58:41.239Z,86.22
2022-12-29T01:59:41.238Z,86.22
2022-12-29T02:00:41.091Z,86.32
2022-12-29T02:01:41.604Z,86.22
2022-12-29T02:02:41.622Z,86.22
2022-12-29T02:03:41.465Z,86.32
2022-12-29T02:04:41.319Z,86.22
2022-12-29T02:05:41.067Z,86.51
2022-12-29T02:06:41.353Z,86.32
2022-12-29T02:07:41.390Z,86.51
2022-12-29T02:08:41.375Z,86.32
2022-12-29T02:09:41.139Z,86.22
2022-12-29T02:10:41.479Z,86.22
2022-12-29T02:11:41.424Z,86.51
2022-12-29T02:12:41.507Z,86.04
2022-12-29T02:13:41.459Z,85.94
2022-12-29T02:14:41.482Z,86.51
2022-12-29T02:15:41.480Z,86.51
2022-12-29T02:16:41.558Z,86.32
2022-12-29T02:17:41.519Z,86.22
2022-12-29T02:18:41.529Z,86.32
2022-12-29T02:19:41.554Z,86.42
2022-12-29T02:20:41.559Z,86.32
2022-12-29T02:21:41.578Z,86.13
2022-12-29T02:22:41.692Z,86.22
2022-12-29T02:23:41.609Z,86.22
2022-12-29T02:24:41.672Z,86.22
2022-12-29T02:25:41.639Z,86.04
2022-12-29T02:26:41.649Z,86.22
2022-12-29T02:27:41.813Z,86.22
2022-12-29T02:28:41.738Z,86.13
2022-12-29T02:29:41.705Z,86.32
2022-12-29T02:30:41.731Z,86.13
2022-12-29T02:31:41.949Z,86.13
2022-12-29T02:32:41.744Z,86.04
2022-12-29T02:33:41.500Z,86.13
2022-12-29T02:34:41.789Z,86.04
2022-12-29T02:35:41.799Z,86.13
2022-12-29T02:36:41.808Z,86.22
2022-12-29T02:37:41.850Z,86.51
2022-12-29T02:38:41.858Z,86.32
2022-12-29T02:39:41.871Z,86.22
2022-12-29T02:40:41.879Z,86.04
2022-12-29T02:41:41.877Z,86.22
2022-12-29T02:42:41.903Z,86.22
2022-12-29T02:43:41.940Z,86.04
2022-12-29T02:44:41.979Z,86.13
2022-12-29T02:45:41.998Z,86.32
2022-12-29T02:46:41.705Z,86.32
2022-12-29T02:47:41.736Z,86.22
2022-12-29T02:48:42.010Z,86.22
2022-12-29T02:49:42.008Z,86.22
2022-12-29T02:50:42.018Z,86.13
2022-12-29T02:51:42.033Z,86.32
2022-12-29T02:52:42.053Z,86.13
2022-12-29T02:53:42.083Z,86.22
2022-12-29T02:54:42.092Z,85.94
2022-12-29T02:55:42.111Z,86.13
2022-12-29T02:56:42.113Z,86.22
2022-12-29T02:57:42.170Z,86.32
2022-12-29T02:58:42.190Z,86.51
2022-12-29T02:59:42.167Z,86.22
2022-12-29T03:00:42.303Z,86.42
2022-12-29T03:01:42.550Z,86.13
2022-12-29T03:02:42.516Z,86.32
2022-12-29T03:03:42.215Z,86.22
2022-12-29T03:04:42.246Z,86.22
2022-12-29T03:05:42.008Z,86.55
2022-12-29T03:06:42.265Z,86.22
2022-12-29T03:07:42.026Z,86.08
2022-12-29T03:08:42.320Z,86.22
2022-12-29T03:09:42.308Z,86.22
2022-12-29T03:10:42.730Z,86.32
2022-12-29T03:11:42.361Z,86.32
2022-12-29T03:12:42.364Z,86.22
2022-12-29T03:13:42.386Z,86.32
2022-12-29T03:14:42.393Z,86.51
2022-12-29T03:15:42.437Z,86.08
2022-12-29T03:16:42.601Z,86.22
2022-12-29T03:17:42.461Z,86.04
2022-12-29T03:18:42.264Z,86.22
2022-12-29T03:19:42.209Z,86.08
2022-12-29T03:20:42.498Z,86.27
2022-12-29T03:21:42.501Z,86.27
2022-12-29T03:22:42.524Z,86.04
2022-12-29T03:23:42.533Z,86.22
2022-12-29T03:24:42.577Z,86.27
2022-12-29T03:25:42.589Z,86.04
2022-12-29T03:26:42.321Z,86.27
2022-12-29T03:27:42.599Z,86.27
2022-12-29T03:28:42.609Z,86.22
2022-12-29T03:29:42.634Z,86.04
2022-12-29T03:30:42.739Z,86.04
2022-12-29T03:31:42.654Z,86.08
2022-12-29T03:32:42.719Z,86.36
2022-12-29T03:33:42.691Z,86.08
2022-12-29T03:34:42.723Z,86.46
2022-12-29T03:35:42.725Z,86.32
2022-12-29T03:36:42.482Z,86.08
2022-12-29T03:37:42.761Z,86.08
2022-12-29T03:38:42.769Z,86.08
2022-12-29T03:39:42.797Z,86.18
2022-12-29T03:40:42.788Z,86.22
2022-12-29T03:41:42.807Z,86.04
2022-12-29T03:42:42.826Z,86.18
2022-12-29T03:43:42.838Z,86.36
2022-12-29T03:44:42.849Z,86.13
2022-12-29T03:45:42.627Z,86.22
2022-12-29T03:46:43.017Z,86.27
2022-12-29T03:47:42.912Z,86.13
2022-12-29T03:48:42.988Z,86.32
2022-12-29T03:49:42.995Z,86.27
2022-12-29T03:50:42.947Z,86.18
2022-12-29T03:51:42.962Z,86.27
2022-12-29T03:52:42.992Z,86.32
2022-12-29T03:53:42.996Z,86.22
2022-12-29T03:54:42.998Z,86.46
2022-12-29T03:55:43.029Z,86.22
2022-12-29T03:56:43.059Z,86.18
2022-12-29T03:57:43.061Z,86.27
2022-12-29T03:58:42.821Z,86.27
2022-12-29T03:59:43.107Z,86.27
2022-12-29T04:00:42.839Z,86.27
2022-12-29T04:01:43.414Z,86.18
2022-12-29T04:02:43.529Z,86.27
2022-12-29T04:03:43.425Z,86.27
2022-12-29T04:04:43.239Z,86.08
2022-12-29T04:05:43.187Z,86.18
2022-12-29T04:06:43.201Z,85.99
2022-12-29T04:07:43.211Z,86.08
2022-12-29T04:08:43.024Z,86.18
2022-12-29T04:09:43.247Z,86.18
2022-12-29T04:10:43.669Z,86.36
2022-12-29T04:11:43.280Z,86.36
2022-12-29T04:12:43.309Z,86.46
2022-12-29T04:13:43.305Z,86.36
2022-12-29T04:14:43.316Z,86.18
2022-12-29T04:15:43.476Z,86.08
2022-12-29T04:16:43.099Z,86.36
2022-12-29T04:17:43.365Z,86.36
2022-12-29T04:18:43.393Z,86.55
2022-12-29T04:19:43.402Z,86.55
2022-12-29T04:20:43.560Z,86.46
2022-12-29T04:21:43.431Z,86.55
2022-12-29T04:22:43.189Z,86.55
2022-12-29T04:23:43.451Z,86.18
2022-12-29T04:24:43.478Z,85.7
2022-12-29T04:25:43.248Z,86.18
2022-12-29T04:26:43.512Z,86.08
2022-12-29T04:27:43.529Z,86.08
2022-12-29T04:28:43.785Z,85.6
2022-12-29T04:29:43.577Z,85.41
2022-12-29T04:30:43.586Z,85.6
2022-12-29T04:31:43.899Z,85.8
2022-12-29T04:32:43.604Z,86.18
2022-12-29T04:33:43.373Z,86.36
2022-12-29T04:34:43.638Z,86.18
2022-12-29T04:35:43.654Z,85.7
2022-12-29T04:36:43.712Z,86.08
2022-12-29T04:37:43.447Z,86.27
2022-12-29T04:38:43.444Z,86.08
2022-12-29T04:39:43.697Z,86.08
2022-12-29T04:40:43.720Z,86.08
2022-12-29T04:41:43.485Z,86.08
2022-12-29T04:42:43.760Z,86.08
2022-12-29T04:43:43.767Z,86.08
2022-12-29T04:44:47.711Z,86.08
2022-12-29T04:45:43.797Z,86.08
2022-12-29T04:46:44.003Z,86.18
2022-12-29T04:47:43.837Z,85.99
2022-12-29T04:48:43.864Z,86.27
2022-12-29T04:49:43.863Z,85.99
2022-12-29T04:50:43.909Z,85.7
2022-12-29T04:51:43.648Z,86.08
2022-12-29T04:52:43.985Z,86.55
2022-12-29T04:53:43.930Z,85.7
2022-12-29T04:54:43.940Z,85.99
2022-12-29T04:55:43.953Z,86.55
2022-12-29T04:56:43.966Z,86.36
2022-12-29T04:57:43.986Z,86.36
2022-12-29T04:58:44.011Z,85.8
2022-12-29T04:59:44.024Z,86.18
2022-12-29T05:00:44.034Z,85.99
2022-12-29T05:01:44.390Z,86.36
2022-12-29T05:02:44.268Z,85.99
2022-12-29T05:03:44.240Z,85.7
2022-12-29T05:04:43.838Z,85.99
2022-12-29T05:05:43.858Z,86.08
2022-12-29T05:06:44.151Z,86.18
2022-12-29T05:07:44.163Z,86.18
2022-12-29T05:08:44.215Z,86.08
2022-12-29T05:09:44.183Z,86.18
2022-12-29T05:10:44.490Z,86.08
2022-12-29T05:11:44.214Z,86.08
2022-12-29T05:12:44.219Z,86.18
2022-12-29T05:13:44.295Z,86.36
2022-12-29T05:14:44.245Z,86.08
2022-12-29T05:15:44.380Z,85.7
2022-12-29T05:16:44.308Z,86.55
2022-12-29T05:17:44.049Z,86.08
2022-12-29T05:18:44.311Z,86.27
2022-12-29T05:19:44.331Z,86.55
2022-12-29T05:20:44.342Z,86.55
2022-12-29T05:21:44.364Z,86.36
2022-12-29T05:22:44.375Z,86.36
2022-12-29T05:23:44.397Z,86.55
2022-12-29T05:24:44.455Z,86.27
2022-12-29T05:25:44.465Z,86.36
2022-12-29T05:26:44.438Z,85.8
2022-12-29T05:27:44.460Z,85.7
2022-12-29T05:28:44.464Z,86.08
2022-12-29T05:29:44.501Z,86.18
2022-12-29T05:30:44.529Z,86.27
2022-12-29T05:31:44.681Z,86.36
2022-12-29T05:32:44.530Z,86.27
2022-12-29T05:33:44.584Z,86.27
2022-12-29T05:34:44.566Z,85.7
2022-12-29T05:35:44.568Z,86.27
2022-12-29T05:36:44.587Z,86.36
2022-12-29T05:37:44.610Z,86.36
2022-12-29T05:38:44.632Z,86.27
2022-12-29T05:39:44.639Z,86.27
2022-12-29T05:40:44.711Z,86.36
2022-12-29T05:41:44.687Z,86.36
2022-12-29T05:42:44.721Z,86.27
2022-12-29T05:43:44.472Z,86.27
2022-12-29T05:44:44.764Z,86.27
2022-12-29T05:45:44.747Z,86.27
2022-12-29T05:46:44.686Z,86.27
2022-12-29T05:47:44.756Z,86.08
2022-12-29T05:48:44.558Z,86.27
2022-12-29T05:49:44.804Z,86.08
2022-12-29T05:50:44.870Z,86.27
2022-12-29T05:51:44.576Z,86.08
2022-12-29T05:52:44.853Z,86.18
2022-12-29T05:53:44.859Z,86.08
2022-12-29T05:54:44.882Z,86.36
2022-12-29T05:55:51.019Z,86.27
2022-12-29T05:56:44.939Z,86.08
2022-12-29T05:57:45.013Z,86.36
2022-12-29T05:58:44.932Z,86.27
2022-12-29T05:59:44.746Z,85.89
2022-12-29T06:00:44.993Z,86.36
2022-12-29T06:01:45.242Z,85.6
2022-12-29T06:02:45.470Z,86.08
2022-12-29T06:03:50.633Z,85.41
2022-12-29T06:04:45.025Z,85.99
2022-12-29T06:05:44.784Z,86.08
2022-12-29T06:06:45.063Z,85.7
2022-12-29T06:07:45.088Z,85.8
2022-12-29T06:08:44.852Z,85.99
2022-12-29T06:09:45.158Z,85.99
2022-12-29T06:10:45.210Z,86.18
2022-12-29T06:11:45.158Z,86.08
2022-12-29T06:12:45.170Z,85.6
2022-12-29T06:13:45.164Z,85.7
2022-12-29T06:14:45.201Z,86.08
2022-12-29T06:15:45.199Z,86.55
2022-12-29T06:16:45.376Z,85.99
2022-12-29T06:17:45.230Z,86.55
2022-12-29T06:18:45.260Z,86.27
2022-12-29T06:19:45.282Z,86.27
2022-12-29T06:20:45.022Z,86.27
2022-12-29T06:21:45.294Z,86.36
2022-12-29T06:22:45.414Z,86.27
2022-12-29T06:23:45.064Z,86.08
2022-12-29T06:24:45.346Z,86.36
2022-12-29T06:25:45.191Z,86.08
2022-12-29T06:26:45.144Z,86.27
2022-12-29T06:27:45.445Z,86.27
2022-12-29T06:28:45.429Z,86.27
2022-12-29T06:29:45.415Z,86.27
2022-12-29T06:30:45.199Z,86.27
2022-12-29T06:31:45.567Z,86.27
2022-12-29T06:32:45.457Z,86.36
2022-12-29T06:33:49.969Z,85.7
2022-12-29T06:34:45.499Z,85.89
2022-12-29T06:35:45.513Z,85.99
2022-12-29T06:36:45.273Z,85.8
2022-12-29T06:37:45.559Z,85.6
2022-12-29T06:38:45.564Z,85.89
2022-12-29T06:39:45.350Z,86.08
2022-12-29T06:40:45.627Z,85.6
2022-12-29T06:41:45.346Z,85.6
2022-12-29T06:42:45.356Z,85.99
2022-12-29T06:43:45.668Z,85.99
2022-12-29T06:44:45.668Z,85.7
2022-12-29T06:45:45.756Z,85.7
2022-12-29T06:46:45.694Z,85.7
2022-12-29T06:47:45.692Z,85.6
2022-12-29T06:48:45.735Z,85.6
2022-12-29T06:49:45.720Z,85.6
2022-12-29T06:50:45.750Z,85.7
2022-12-29T06:51:45.762Z,85.7
2022-12-29T06:52:45.790Z,85.7
2022-12-29T06:53:45.797Z,85.7
2022-12-29T06:54:45.551Z,85.7
2022-12-29T06:55:45.836Z,85.8
2022-12-29T06:56:45.849Z,85.99
2022-12-29T06:57:45.593Z,85.6
2022-12-29T06:58:45.872Z,85.8
2022-12-29T06:59:45.905Z,85.6
2022-12-29T07:00:46.047Z,85.6
2022-12-29T07:01:46.258Z,85.6
2022-12-29T07:02:45.922Z,85.6
2022-12-29T07:03:45.968Z,85.99
2022-12-29T07:04:45.963Z,85.6
2022-12-29T07:05:45.739Z,85.89
2022-12-29T07:06:45.995Z,85.7
2022-12-29T07:07:46.025Z,85.8
2022-12-29T07:08:46.027Z,85.7
2022-12-29T07:09:46.042Z,85.7
2022-12-29T07:10:46.455Z,85.7
2022-12-29T07:11:46.108Z,85.7
2022-12-29T07:12:45.823Z,85.99
2022-12-29T07:13:46.102Z,85.6
2022-12-29T07:14:46.300Z,85.89
2022-12-29T07:15:46.195Z,85.89
2022-12-29T07:16:46.444Z,85.13
2022-12-29T07:17:46.202Z,85.8
2022-12-29T07:18:46.191Z,85.89
2022-12-29T07:19:46.248Z,85.6
2022-12-29T07:20:46.210Z,85.6
2022-12-29T07:21:46.588Z,85.8
2022-12-29T07:22:46.244Z,85.8
2022-12-29T07:23:46.262Z,85.7
2022-12-29T07:24:46.269Z,85.7
2022-12-29T07:25:46.295Z,85.7
2022-12-29T07:26:46.306Z,85.6
2022-12-29T07:27:46.324Z,85.89
2022-12-29T07:28:46.351Z,85.7
2022-12-29T07:29:46.363Z,85.7
2022-12-29T07:30:46.365Z,85.99
2022-12-29T07:31:46.557Z,85.8
2022-12-29T07:32:46.433Z,85.8
2022-12-29T07:33:46.420Z,85.99
2022-12-29T07:34:46.433Z,85.99
2022-12-29T07:35:46.451Z,85.7
2022-12-29T07:36:46.471Z,85.89
2022-12-29T07:37:46.479Z,85.8
2022-12-29T07:38:46.497Z,85.7
2022-12-29T07:39:46.497Z,85.99
2022-12-29T07:40:46.532Z,85.89
2022-12-29T07:41:46.549Z,85.7
2022-12-29T07:42:46.750Z,85.7
2022-12-29T07:43:46.570Z,85.89
2022-12-29T07:44:46.600Z,85.7
2022-12-29T07:45:46.667Z,85.7
2022-12-29T07:46:58.033Z,85.7
2022-12-29T07:47:46.628Z,85.8
2022-12-29T07:48:46.751Z,85.8
2022-12-29T07:49:46.681Z,85.7
2022-12-29T07:50:46.690Z,85.7
2022-12-29T07:51:46.718Z,85.7
2022-12-29T07:52:46.717Z,85.7
2022-12-29T07:53:46.729Z,85.8
2022-12-29T07:54:46.484Z,85.8
2022-12-29T07:55:46.778Z,85.7
2022-12-29T07:56:46.790Z,85.8
2022-12-29T07:57:46.789Z,85.99
2022-12-29T07:58:46.800Z,85.89
2022-12-29T07:59:46.821Z,85.8
2022-12-29T08:00:46.841Z,85.6
2022-12-29T08:01:47.211Z,85.6
2022-12-29T08:02:47.159Z,85.89
2022-12-29T08:03:48.549Z,85.6
2022-12-29T08:04:46.933Z,85.13
2022-12-29T08:05:46.918Z,85.13
2022-12-29T08:06:46.946Z,85.6
2022-12-29T08:07:46.938Z,85.7
2022-12-29T08:08:46.966Z,85.99
2022-12-29T08:09:46.979Z,85.7
2022-12-29T08:10:47.191Z,85.89
2022-12-29T08:11:47.027Z,85.89
2022-12-29T08:12:46.821Z,85.99
2022-12-29T08:13:47.044Z,85.89
2022-12-29T08:14:46.834Z,85.89
2022-12-29T08:15:47.157Z,86.18
2022-12-29T08:16:47.095Z,85.8
2022-12-29T08:17:47.108Z,85.7
2022-12-29T08:18:46.888Z,85.7
2022-12-29T08:19:47.148Z,85.7
2022-12-29T08:20:51.132Z,85.7
2022-12-29T08:21:47.179Z,85.8
2022-12-29T08:22:47.188Z,85.6
2022-12-29T08:23:47.195Z,85.7
2022-12-29T08:24:47.215Z,85.7
2022-12-29T08:25:46.973Z,85.8
2022-12-29T08:26:47.286Z,85.7
2022-12-29T08:27:46.999Z,85.7
2022-12-29T08:28:47.796Z,85.7
2022-12-29T08:29:47.054Z,85.8
2022-12-29T08:30:47.445Z,85.89
2022-12-29T08:31:47.449Z,86.03
2022-12-29T08:32:47.347Z,85.89
2022-12-29T08:33:47.358Z,85.7
2022-12-29T08:34:47.412Z,85.7
2022-12-29T08:35:47.388Z,85.74
2022-12-29T08:36:47.435Z,86.08
2022-12-29T08:37:47.427Z,85.7
2022-12-29T08:38:47.437Z,85.7
2022-12-29T08:39:47.460Z,85.7
2022-12-29T08:40:47.472Z,85.8
2022-12-29T08:41:47.487Z,85.99
2022-12-29T08:42:47.505Z,85.84
2022-12-29T08:43:47.511Z,85.8
2022-12-29T08:44:47.539Z,86.03
2022-12-29T08:45:47.340Z,85.89
2022-12-29T08:46:47.562Z,86.08
2022-12-29T08:47:47.576Z,85.7
2022-12-29T08:48:47.599Z,86.08
2022-12-29T08:49:47.602Z,85.7
2022-12-29T08:50:47.672Z,85.7
2022-12-29T08:51:47.631Z,86.27
2022-12-29T08:52:47.675Z,86.32
2022-12-29T08:53:47.412Z,86.27
2022-12-29T08:54:47.826Z,86.27
2022-12-29T08:55:47.704Z,86.27
2022-12-29T08:56:47.475Z,86.32
2022-12-29T08:57:47.481Z,86.08
2022-12-29T08:58:47.754Z,85.99
2022-12-29T08:59:47.779Z,86.27
2022-12-29T09:00:47.793Z,86.27
2022-12-29T09:01:48.084Z,86.32
2022-12-29T09:02:48.330Z,86.12
2022-12-29T09:04:17.890Z,86.22
2022-12-29T09:04:47.969Z,86.18
2022-12-29T09:05:47.605Z,86.12
2022-12-29T09:06:48.122Z,86.08
2022-12-29T09:07:47.893Z,86.27
2022-12-29T09:08:47.954Z,86.08
2022-12-29T09:09:47.920Z,86.08
2022-12-29T09:10:48.377Z,86.27
2022-12-29T09:11:47.716Z,86.32
2022-12-29T09:12:47.983Z,86.27
2022-12-29T09:13:48.002Z,86.27
2022-12-29T09:14:48.011Z,86.27
2022-12-29T09:15:47.826Z,86.32
2022-12-29T09:16:48.039Z,86.32
2022-12-29T09:17:48.055Z,86.27
2022-12-29T09:18:48.078Z,85.99
2022-12-29T09:19:48.084Z,86.18
2022-12-29T09:20:48.101Z,85.99
2022-12-29T09:21:47.847Z,86.55
2022-12-29T09:22:48.185Z,86.18
2022-12-29T09:23:48.162Z,85.7
2022-12-29T09:24:48.184Z,86.08
2022-12-29T09:25:47.925Z,86.12
2022-12-29T09:26:49.703Z,85.89
2022-12-29T09:27:48.227Z,86.08
2022-12-29T09:28:48.293Z,85.46
2022-12-29T09:29:48.237Z,85.6
2022-12-29T09:30:48.246Z,85.99
2022-12-29T09:31:48.095Z,86.03
2022-12-29T09:32:54.938Z,85.6
2022-12-29T09:33:48.302Z,85.7
2022-12-29T09:34:48.322Z,86.08
2022-12-29T09:35:48.330Z,86.08
2022-12-29T09:36:48.374Z,85.41
2022-12-29T09:37:48.373Z,86.03
2022-12-29T09:38:48.425Z,85.7
2022-12-29T09:39:56.306Z,85.99
2022-12-29T09:40:48.445Z,85.89
2022-12-29T09:41:48.573Z,85.51
2022-12-29T09:42:48.440Z,85.51
2022-12-29T09:43:48.201Z,85.55
2022-12-29T09:44:48.474Z,85.64
2022-12-29T09:45:48.499Z,85.51
2022-12-29T09:46:48.669Z,85.55
2022-12-29T09:47:48.531Z,85.64
2022-12-29T09:48:48.557Z,85.55
2022-12-29T09:49:48.548Z,85.84
2022-12-29T09:50:48.583Z,85.84
2022-12-29T09:51:48.578Z,85.64
2022-12-29T09:52:48.350Z,85.55
2022-12-29T09:53:48.618Z,85.64
2022-12-29T09:55:02.293Z,85.55
2022-12-29T09:55:48.648Z,85.46
2022-12-29T09:56:48.707Z,85.64
2022-12-29T09:57:48.756Z,85.46
2022-12-29T09:58:48.707Z,85.64
2022-12-29T09:59:48.753Z,85.84
2022-12-29T10:00:55.732Z,85.55
2022-12-29T10:01:49.141Z,85.64
2022-12-29T10:02:49.022Z,85.27
2022-12-29T10:03:48.777Z,85.74
2022-12-29T10:04:48.794Z,85.64
2022-12-29T10:05:48.817Z,85.55
2022-12-29T10:07:30.729Z,85.74
2022-12-29T10:07:48.844Z,85.27
2022-12-29T10:08:48.850Z,85.27
2022-12-29T10:09:48.610Z,85.27
2022-12-29T10:10:49.361Z,85.84
2022-12-29T10:11:48.908Z,85.27
2022-12-29T10:12:48.943Z,85.64
2022-12-29T10:13:48.947Z,85.55
2022-12-29T10:14:48.947Z,85.64
2022-12-29T10:15:48.956Z,85.64
2022-12-29T10:16:48.936Z,85.84
2022-12-29T10:17:48.782Z,85.55
2022-12-29T10:18:49.017Z,85.55
2022-12-29T10:19:49.031Z,85.55
2022-12-29T10:20:49.053Z,85.64
2022-12-29T10:21:49.099Z,85.64
2022-12-29T10:22:48.811Z,85.46
2022-12-29T10:23:49.097Z,85.55
2022-12-29T10:24:49.109Z,85.64
2022-12-29T10:25:48.857Z,85.64
2022-12-29T10:26:49.158Z,85.64
2022-12-29T10:27:49.164Z,85.64
2022-12-29T10:28:49.195Z,85.55
2022-12-29T10:29:49.208Z,85.55
2022-12-29T10:30:48.962Z,85.64
2022-12-29T10:31:49.356Z,85.55
2022-12-29T10:32:49.237Z,85.55
2022-12-29T10:33:49.283Z,85.55
2022-12-29T10:34:49.267Z,85.64
2022-12-29T10:35:49.293Z,85.55
2022-12-29T10:36:49.291Z,85.84
2022-12-29T10:37:49.339Z,85.84
2022-12-29T10:38:49.323Z,85.64
2022-12-29T10:39:49.360Z,85.64
2022-12-29T10:40:49.373Z,85.84
2022-12-29T10:41:49.378Z,85.84
2022-12-29T10:42:49.427Z,85.84
2022-12-29T10:43:49.428Z,85.84
2022-12-29T10:44:49.448Z,85.17
2022-12-29T10:45:49.572Z,85.55
2022-12-29T10:46:49.451Z,85.74
2022-12-29T10:47:49.483Z,85.64
2022-12-29T10:48:49.481Z,85.74
2022-12-29T10:49:49.507Z,85.55
2022-12-29T10:50:49.575Z,85.74
2022-12-29T10:51:49.577Z,85.55
2022-12-29T10:52:49.592Z,86.03
2022-12-29T10:53:49.299Z,85.64
2022-12-29T10:54:49.622Z,85.64
2022-12-29T10:55:49.649Z,85.64
2022-12-29T10:56:49.638Z,85.17
2022-12-29T10:57:49.657Z,85.84
2022-12-29T10:58:52.284Z,85.55
2022-12-29T10:59:49.407Z,85.55
2022-12-29T11:00:49.878Z,85.64
2022-12-29T11:01:50.087Z,85.55
2022-12-29T11:02:50.226Z,85.84
2022-12-29T11:03:49.712Z,85.74
2022-12-29T11:04:49.753Z,86.03
2022-12-29T11:05:49.753Z,85.55
2022-12-29T11:06:49.769Z,85.27
2022-12-29T11:07:49.788Z,85.84
2022-12-29T11:08:49.795Z,85.84
2022-12-29T11:09:49.875Z,85.64
2022-12-29T11:10:49.894Z,85.46
2022-12-29T11:11:49.850Z,85.55
2022-12-29T11:12:49.862Z,85.55
2022-12-29T11:13:49.934Z,85.55
2022-12-29T11:14:49.914Z,85.64
2022-12-29T11:15:49.935Z,85.27
2022-12-29T11:16:50.125Z,85.84
2022-12-29T11:17:49.956Z,85.64
2022-12-29T11:18:49.954Z,85.74
2022-12-29T11:19:49.728Z,85.36
2022-12-29T11:20:50.012Z,85.27
2022-12-29T11:21:50.011Z,85.27
2022-12-29T11:22:50.027Z,85.36
2022-12-29T11:23:50.030Z,85.55
2022-12-29T11:24:50.073Z,85.64
2022-12-29T11:25:50.089Z,85.84
2022-12-29T11:26:50.081Z,85.64
2022-12-29T11:27:50.100Z,85.64
2022-12-29T11:28:49.870Z,85.64
2022-12-29T11:29:50.141Z,85.55
2022-12-29T11:30:50.212Z,85.64
2022-12-29T11:31:50.336Z,85.64
2022-12-29T11:32:50.204Z,85.64
2022-12-29T11:33:50.193Z,85.64
2022-12-29T11:34:50.205Z,85.84
2022-12-29T11:35:50.226Z,85.55
2022-12-29T11:36:50.271Z,85.55
2022-12-29T11:37:50.291Z,85.27
2022-12-29T11:38:50.021Z,85.74
2022-12-29T11:39:50.022Z,85.74
2022-12-29T11:40:50.312Z,85.55
2022-12-29T11:41:50.317Z,85.74
2022-12-29T11:42:50.078Z,85.64
2022-12-29T11:43:50.347Z,85.08
2022-12-29T11:44:50.376Z,85.17
2022-12-29T11:45:50.236Z,84.98
2022-12-29T11:46:50.431Z,85.17
2022-12-29T11:47:50.448Z,85.08
2022-12-29T11:48:50.463Z,84.98
2022-12-29T11:49:50.457Z,85.17
2022-12-29T11:50:50.460Z,85.93
2022-12-29T11:51:50.501Z,85.36
2022-12-29T11:52:50.497Z,86.12
2022-12-29T11:53:50.520Z,85.74
2022-12-29T11:54:50.520Z,85.84
2022-12-29T11:55:50.543Z,85.55
2022-12-29T11:56:50.563Z,85.55
2022-12-29T11:57:50.588Z,86.03
2022-12-29T11:58:50.591Z,86.03
2022-12-29T11:59:50.603Z,86.03
2022-12-29T12:00:50.621Z,85.84
2022-12-29T12:01:50.799Z,85.74
2022-12-29T12:02:50.561Z,86.22
2022-12-29T12:03:51.034Z,86.32
2022-12-29T12:04:50.702Z,86.22
2022-12-29T12:05:50.694Z,86.22
2022-12-29T12:06:50.776Z,86.32
2022-12-29T12:07:50.739Z,86.32
2022-12-29T12:08:50.745Z,86.41
2022-12-29T12:09:50.765Z,86.41
2022-12-29T12:10:51.092Z,86.12
2022-12-29T12:11:50.807Z,86.22
2022-12-29T12:12:50.805Z,86.79
2022-12-29T12:13:50.579Z,86.79
2022-12-29T12:14:50.861Z,86.69
2022-12-29T12:15:58.156Z,86.51
2022-12-29T12:16:50.730Z,86.32
2022-12-29T12:17:50.643Z,86.69
2022-12-29T12:18:51.022Z,86.6
2022-12-29T12:19:50.943Z,86.41
2022-12-29T12:20:50.956Z,86.6
2022-12-29T12:21:50.954Z,86.51
2022-12-29T12:22:50.967Z,86.6
2022-12-29T12:23:50.981Z,86.51
2022-12-29T12:24:50.996Z,86.51
2022-12-29T12:25:51.024Z,86.6
2022-12-29T12:26:51.034Z,86.51
2022-12-29T12:27:51.053Z,86.69
2022-12-29T12:28:51.068Z,87.27
2022-12-29T12:29:51.091Z,86.79
2022-12-29T12:30:51.342Z,87.27
2022-12-29T12:31:51.126Z,87.17
2022-12-29T12:32:51.148Z,86.98
2022-12-29T12:33:51.143Z,87.07
2022-12-29T12:34:51.195Z,87.07
2022-12-29T12:35:51.166Z,87.07
2022-12-29T12:36:51.275Z,87.07
2022-12-29T12:37:50.950Z,86.98
2022-12-29T12:38:51.227Z,86.69
2022-12-29T12:39:51.249Z,86.88
2022-12-29T12:40:51.277Z,87.07
2022-12-29T12:41:51.308Z,86.88
2022-12-29T12:42:51.356Z,87.46
2022-12-29T12:43:51.304Z,86.88
2022-12-29T12:44:51.328Z,86.88
2022-12-29T12:45:51.073Z,87.07
2022-12-29T12:46:51.456Z,87.27
2022-12-29T12:47:51.113Z,87.07
2022-12-29T12:48:51.397Z,87.36
2022-12-29T12:49:51.389Z,87.17
2022-12-29T12:50:51.439Z,87.07
2022-12-29T12:51:51.434Z,87.27
2022-12-29T12:52:51.480Z,86.88
2022-12-29T12:53:51.476Z,87.17
2022-12-29T12:54:51.554Z,87.07
2022-12-29T12:55:51.486Z,86.88
2022-12-29T12:56:51.276Z,86.98